createdAt,value
2023-03-25T00:22:29.457Z,61.10
2023-03-25T00:24:59.355Z,61.80
2023-03-25T00:27:29.377Z,62.00
2023-03-25T00:32:19.443Z,62.80
2023-03-25T00:34:49.308Z,62.20
2023-03-25T00:37:19.510Z,62.80
2023-03-25T00:39:49.821Z,63.00
2023-03-25T00:42:27.871Z,63.00
2023-03-25T00:44:57.322Z,61.70
2023-03-25T00:47:27.502Z,61.50
2023-03-25T00:49:57.500Z,60.90
2023-03-25T00:52:27.455Z,60.40
2023-03-25T00:54:57.299Z,60.00
2023-03-25T00:57:27.336Z,59.50
2023-03-25T00:59:57.091Z,59.20
2023-03-25T01:02:27.945Z,59.00
2023-03-25T01:04:59.492Z,58.50
2023-03-25T01:07:31.280Z,58.60
2023-03-25T01:10:02.044Z,58.40
2023-03-25T01:12:32.096Z,57.90
2023-03-25T01:15:03.583Z,57.80
2023-03-25T01:17:33.982Z,57.50
2023-03-25T01:20:04.047Z,57.10
2023-03-25T01:22:34.283Z,57.10
2023-03-25T01:25:04.494Z,57.10
2023-03-25T01:27:34.486Z,56.70
2023-03-25T01:30:04.681Z,56.60
2023-03-25T01:32:34.998Z,56.60
2023-03-25T01:35:06.719Z,56.00
2023-03-25T01:37:38.460Z,56.00
2023-03-25T01:40:11.894Z,55.90
2023-03-25T01:42:41.906Z,55.70
2023-03-25T01:45:32.695Z,55.80
2023-03-25T01:48:17.141Z,55.20
2023-03-25T01:50:52.641Z,55.00
2023-03-25T01:53:23.207Z,54.50
2023-03-25T01:55:56.402Z,53.60
2023-03-25T01:58:29.093Z,53.80
2023-03-25T02:00:59.658Z,53.70
2023-03-25T02:03:32.685Z,52.50
2023-03-25T02:06:12.341Z,52.10
2023-03-25T02:08:44.219Z,51.80
2023-03-25T02:11:14.349Z,52.00
2023-03-25T02:13:45.344Z,51.20
2023-03-25T02:16:31.679Z,51.00
2023-03-25T02:19:29.893Z,50.50
2023-03-25T02:22:42.057Z,50.40
2023-03-25T02:25:41.616Z,49.60
2023-03-25T02:28:42.687Z,49.50
2023-03-25T02:31:51.658Z,49.70
2023-03-25T02:34:39.684Z,49.10
2023-03-25T02:37:48.843Z,48.40
2023-03-25T02:40:28.807Z,48.40
2023-03-25T02:43:11.964Z,48.70
2023-03-25T02:45:50.615Z,48.30
2023-03-25T02:48:36.127Z,48.10
2023-03-25T02:51:12.278Z,47.70
2023-03-25T02:53:45.059Z,48.10
2023-03-25T02:56:18.926Z,48.30
2023-03-25T02:58:51.630Z,47.90
2023-03-25T03:01:24.505Z,47.20
2023-03-25T03:03:55.934Z,46.60
2023-03-25T03:06:27.950Z,46.60
2023-03-25T03:09:37.128Z,46.60
2023-03-25T03:12:46.105Z,47.20
2023-03-25T03:15:41.767Z,46.20
2023-03-25T03:18:36.123Z,46.00
2023-03-25T03:21:25.159Z,46.50
2023-03-25T03:24:08.804Z,45.90
2023-03-25T03:26:55.731Z,46.00
2023-03-25T03:29:38.205Z,45.40
2023-03-25T03:32:24.252Z,45.30
2023-03-25T03:35:06.643Z,45.40
2023-03-25T03:37:46.741Z,43.50
2023-03-25T03:40:20.787Z,43.70
2023-03-25T03:43:00.669Z,43.00
2023-03-25T03:45:50.330Z,43.40
2023-03-25T03:48:43.971Z,43.00
2023-03-25T03:51:21.322Z,44.00
2023-03-25T03:54:02.506Z,43.50
2023-03-25T03:56:43.185Z,42.60
2023-03-25T03:59:25.495Z,42.80
2023-03-25T04:02:02.764Z,42.50
2023-03-25T04:04:36.837Z,43.20
2023-03-25T04:07:20.207Z,43.40
2023-03-25T04:10:22.683Z,43.30
2023-03-25T04:12:55.826Z,43.00
2023-03-25T04:15:26.022Z,43.30
2023-03-25T04:17:56.718Z,43.60
2023-03-25T04:20:31.839Z,43.50
2023-03-25T04:23:02.146Z,43.50
2023-03-25T04:25:34.386Z,43.70
2023-03-25T04:28:05.169Z,43.70
2023-03-25T04:30:35.346Z,43.70
2023-03-25T04:33:05.353Z,43.50
2023-03-25T04:35:35.902Z,43.50
2023-03-25T04:38:07.585Z,42.90
2023-03-25T04:40:37.718Z,42.20
2023-03-25T04:43:08.384Z,42.70
2023-03-25T04:45:38.498Z,42.10
2023-03-25T04:48:08.752Z,42.30
2023-03-25T04:50:38.780Z,42.30
2023-03-25T04:53:08.793Z,41.90
2023-03-25T04:55:38.709Z,41.00
2023-03-25T04:58:09.485Z,40.60
2023-03-25T05:00:39.375Z,41.20
2023-03-25T05:03:09.214Z,41.30
2023-03-25T05:05:39.182Z,40.60
2023-03-25T05:08:09.758Z,36.30
2023-03-25T05:10:40.727Z,38.20
2023-03-25T05:13:11.296Z,37.70
2023-03-25T05:15:41.565Z,37.00
2023-03-25T05:18:15.473Z,37.80
2023-03-25T05:20:48.822Z,36.10
2023-03-25T05:23:19.760Z,36.80
2023-03-25T05:25:52.478Z,37.00
2023-03-25T05:28:22.905Z,36.70
2023-03-25T05:30:53.900Z,36.70
2023-03-25T05:33:24.584Z,36.30
2023-03-25T05:35:54.836Z,36.50
2023-03-25T05:38:24.793Z,35.30
2023-03-25T05:40:54.969Z,35.70
2023-03-25T05:43:25.068Z,36.80
2023-03-25T05:45:55.251Z,34.60
2023-03-25T05:48:25.202Z,33.50
2023-03-25T05:50:58.367Z,34.00
2023-03-25T05:53:28.362Z,33.90
2023-03-25T05:55:58.283Z,35.00
2023-03-25T05:58:28.393Z,35.80
2023-03-25T06:00:58.320Z,34.20
2023-03-25T06:03:29.419Z,34.70
2023-03-25T06:05:59.666Z,34.90
2023-03-25T06:08:31.790Z,35.30
2023-03-25T06:11:02.573Z,35.70
2023-03-25T06:13:35.847Z,36.20
2023-03-25T06:16:07.762Z,35.10
2023-03-25T06:18:39.046Z,35.90
2023-03-25T06:21:10.479Z,35.20
2023-03-25T06:23:41.294Z,35.40
2023-03-25T06:26:11.383Z,35.80
2023-03-25T06:28:41.720Z,34.40
2023-03-25T06:31:20.385Z,34.90
2023-03-25T06:33:52.676Z,34.20
2023-03-25T06:36:23.003Z,34.60
2023-03-25T06:38:53.573Z,35.60
2023-03-25T06:41:23.715Z,35.50
2023-03-25T06:43:53.526Z,35.70
2023-03-25T06:46:23.547Z,36.00
2023-03-25T06:48:53.870Z,36.00
2023-03-25T06:51:24.496Z,36.00
2023-03-25T06:53:54.540Z,36.00
2023-03-25T06:56:24.777Z,36.90
2023-03-25T06:58:54.807Z,36.30
2023-03-25T07:01:24.824Z,36.70
2023-03-25T07:03:54.808Z,37.00
2023-03-25T07:06:26.195Z,36.40
2023-03-25T07:08:56.166Z,36.60
2023-03-25T07:11:30.660Z,36.90
2023-03-25T07:14:00.507Z,37.20
2023-03-25T07:16:31.549Z,37.10
2023-03-25T07:19:01.659Z,37.20
2023-03-25T07:21:31.577Z,37.10
2023-03-25T07:24:01.424Z,37.60
2023-03-25T07:26:31.830Z,38.00
2023-03-25T07:29:02.561Z,38.20
2023-03-25T07:31:32.940Z,38.40
2023-03-25T07:34:04.619Z,38.90
2023-03-25T07:36:34.542Z,38.80
2023-03-25T07:39:04.754Z,38.50
2023-03-25T07:41:34.722Z,38.60
2023-03-25T07:44:04.870Z,38.80
2023-03-25T07:46:35.096Z,38.40
2023-03-25T07:49:05.839Z,39.00
2023-03-25T07:51:36.913Z,39.40
2023-03-25T07:54:07.191Z,38.80
2023-03-25T07:56:37.489Z,38.80
2023-03-25T07:59:07.841Z,39.00
2023-03-25T08:01:37.965Z,39.20
2023-03-25T08:04:08.230Z,38.80
2023-03-25T08:06:38.112Z,38.40
2023-03-25T08:09:09.291Z,38.10
2023-03-25T08:11:39.308Z,37.60
2023-03-25T08:14:09.675Z,37.30
2023-03-25T08:16:39.743Z,37.50
2023-03-25T08:19:09.697Z,37.90
2023-03-25T08:21:39.696Z,37.00
2023-03-25T08:24:09.865Z,37.60
2023-03-25T08:26:40.480Z,37.30
2023-03-25T08:29:11.940Z,37.50
2023-03-25T08:31:42.251Z,37.50
2023-03-25T08:34:12.373Z,37.60
2023-03-25T08:36:42.459Z,37.30
2023-03-25T08:39:13.470Z,37.10
2023-03-25T08:41:43.443Z,37.00
2023-03-25T08:44:13.882Z,37.20
2023-03-25T08:46:43.837Z,36.70
2023-03-25T08:49:13.837Z,36.70
2023-03-25T08:51:43.833Z,37.00
2023-03-25T08:54:13.941Z,37.50
2023-03-25T08:56:43.857Z,37.30
2023-03-25T08:59:14.795Z,37.80
2023-03-25T09:01:45.421Z,35.50
2023-03-25T09:04:15.645Z,35.80
2023-03-25T09:06:47.595Z,35.70
2023-03-25T09:09:35.984Z,36.00
2023-03-25T09:12:07.235Z,35.50
2023-03-25T09:14:37.287Z,35.60
2023-03-25T09:17:12.070Z,35.40
2023-03-25T09:19:41.876Z,35.20
2023-03-25T09:22:12.036Z,35.40
2023-03-25T09:24:42.447Z,35.30
2023-03-25T09:27:12.812Z,34.80
2023-03-25T09:29:43.359Z,35.40
2023-03-25T09:32:13.341Z,35.60
2023-03-25T09:34:43.276Z,35.60
2023-03-25T09:37:13.801Z,35.30
2023-03-25T09:39:44.083Z,34.90
2023-03-25T09:42:51.195Z,35.20
2023-03-25T09:58:37.344Z,34.40
2023-03-25T10:01:32.695Z,35.60
2023-03-25T10:04:41.686Z,35.30
2023-03-25T10:07:30.402Z,35.60
2023-03-25T10:10:28.890Z,35.80
2023-03-25T10:13:34.704Z,36.20
2023-03-25T10:16:35.768Z,35.80
2023-03-25T10:19:31.636Z,36.50
2023-03-25T10:22:10.669Z,36.20
2023-03-25T10:24:54.897Z,36.50
2023-03-25T10:27:46.936Z,36.90
2023-03-25T10:30:45.787Z,37.00
2023-03-25T10:33:42.349Z,37.10
2023-03-25T10:36:20.882Z,37.30
2023-03-25T10:38:59.292Z,37.20
2023-03-25T10:41:37.407Z,37.60
2023-03-25T10:44:11.972Z,37.60
2023-03-25T10:47:06.408Z,37.80
2023-03-25T10:49:38.703Z,37.70
2023-03-25T10:52:08.759Z,37.50
2023-03-25T10:54:44.563Z,37.80
2023-03-25T10:57:26.095Z,37.90
2023-03-25T11:00:08.357Z,37.60
2023-03-25T11:02:38.578Z,37.60
2023-03-25T11:05:11.639Z,37.70
2023-03-25T11:07:52.789Z,37.60
2023-03-25T11:10:28.874Z,37.40
2023-03-25T11:13:05.431Z,37.60
2023-03-25T11:15:40.609Z,37.30
2023-03-25T11:18:39.086Z,37.10
2023-03-25T11:21:13.453Z,36.80
2023-03-25T11:23:54.355Z,36.90
2023-03-25T11:26:38.718Z,36.80
2023-03-25T11:29:17.602Z,36.90
2023-03-25T11:32:00.726Z,36.90
2023-03-25T11:34:32.941Z,36.90
2023-03-25T11:37:11.322Z,37.00
2023-03-25T11:39:44.333Z,37.20
2023-03-25T11:42:51.484Z,37.30
2023-03-25T11:45:41.062Z,37.40
2023-03-25T11:48:19.152Z,37.50
2023-03-25T11:51:11.020Z,37.80
2023-03-25T11:53:49.331Z,37.90
2023-03-25T11:56:25.665Z,38.20
2023-03-25T11:59:02.600Z,38.40
2023-03-25T12:01:48.313Z,38.70
2023-03-25T12:04:27.027Z,39.00
2023-03-25T12:07:00.835Z,39.20
2023-03-25T12:09:33.757Z,40.00
2023-03-25T12:12:30.692Z,39.70
2023-03-25T12:15:41.457Z,40.00
2023-03-25T12:18:50.635Z,40.20
2023-03-25T12:21:47.458Z,40.60
2023-03-25T12:24:57.416Z,40.80
2023-03-25T12:27:57.096Z,41.10
2023-03-25T12:30:53.364Z,41.20
2023-03-25T12:34:02.816Z,41.30
2023-03-25T12:36:49.780Z,41.50
2023-03-25T12:39:58.720Z,41.60
2023-03-25T12:43:04.017Z,41.80
2023-03-25T12:46:12.721Z,42.00
2023-03-25T12:49:09.324Z,42.10
2023-03-25T12:52:13.796Z,42.30
2023-03-25T12:55:22.671Z,42.30
2023-03-25T12:58:31.416Z,42.40
2023-03-25T13:01:31.940Z,43.00
2023-03-25T13:04:19.634Z,43.00
2023-03-25T13:07:13.871Z,43.30
2023-03-25T13:10:13.509Z,45.30
2023-03-25T13:13:05.195Z,44.50
2023-03-25T13:15:43.096Z,44.60
2023-03-25T13:18:29.913Z,44.40
2023-03-25T13:21:23.323Z,44.50
2023-03-25T13:24:01.582Z,44.90
2023-03-25T13:26:34.272Z,44.80
2023-03-25T13:29:27.200Z,45.00
2023-03-25T13:32:01.828Z,45.10
2023-03-25T13:34:57.039Z,45.30
2023-03-25T13:37:40.406Z,45.60
2023-03-25T13:40:30.148Z,45.50
2023-03-25T13:43:25.613Z,45.50
2023-03-25T13:46:15.984Z,45.50
2023-03-25T13:49:12.083Z,45.60
2023-03-25T13:51:41.788Z,45.90
2023-03-25T13:54:25.946Z,45.90
2023-03-25T13:57:23.628Z,46.10
2023-03-25T14:00:23.154Z,46.40
2023-03-25T14:03:29.684Z,46.70
2023-03-25T14:06:33.391Z,46.70
2023-03-25T14:09:42.147Z,46.80
2023-03-25T14:12:21.742Z,46.90
2023-03-25T14:15:01.687Z,46.90
2023-03-25T14:17:32.469Z,47.00
2023-03-25T14:20:03.474Z,47.20
2023-03-25T14:22:38.540Z,47.40
2023-03-25T14:25:09.378Z,47.40
2023-03-25T14:27:39.533Z,47.60
2023-03-25T14:30:22.080Z,47.60
2023-03-25T14:32:53.555Z,47.80
2023-03-25T14:35:48.904Z,47.80
2023-03-25T14:38:23.785Z,48.00
2023-03-25T14:41:01.967Z,47.90
2023-03-25T14:44:03.872Z,47.90
2023-03-25T14:46:38.143Z,47.80
2023-03-25T14:52:31.832Z,48.10
2023-03-25T14:55:07.984Z,48.00
2023-03-25T14:57:44.493Z,48.20
2023-03-25T15:00:29.528Z,48.60
2023-03-25T15:03:15.228Z,49.00
2023-03-25T15:05:45.532Z,49.20
2023-03-25T15:08:26.177Z,49.20
2023-03-25T15:11:18.492Z,49.30
2023-03-25T15:13:55.071Z,49.80
2023-03-25T15:17:03.775Z,50.00
2023-03-25T15:20:13.720Z,50.10
2023-03-25T15:22:43.461Z,50.10
2023-03-25T15:25:18.680Z,50.30
2023-03-25T15:28:07.499Z,50.20
2023-03-25T15:31:04.635Z,50.50
2023-03-25T15:33:57.518Z,51.40
2023-03-25T15:36:57.251Z,51.70
2023-03-25T15:39:59.913Z,52.20
2023-03-25T15:42:48.713Z,52.90
2023-03-25T15:45:48.362Z,52.80
2023-03-25T15:48:42.265Z,52.80
2023-03-25T15:51:50.984Z,53.10
2023-03-25T15:54:33.715Z,53.20
2023-03-25T15:57:18.751Z,53.10
2023-03-25T16:00:16.765Z,53.10
2023-03-25T16:03:13.906Z,53.40
2023-03-25T16:05:57.217Z,53.00
2023-03-25T16:08:48.795Z,53.50
2023-03-25T16:11:27.739Z,54.20
2023-03-25T16:14:18.535Z,54.20
2023-03-25T16:16:55.333Z,54.40
2023-03-25T16:19:30.880Z,54.50
2023-03-25T16:22:05.531Z,54.50
2023-03-25T16:24:36.485Z,54.50
2023-03-25T16:27:25.755Z,54.40
2023-03-25T16:30:00.493Z,54.60
2023-03-25T16:32:37.732Z,54.60
2023-03-25T16:35:09.970Z,54.60
2023-03-25T16:37:42.205Z,54.40
2023-03-25T16:40:21.218Z,54.50
2023-03-25T16:42:51.524Z,55.20
2023-03-25T16:45:21.190Z,55.50
2023-03-25T16:47:51.824Z,55.80
2023-03-25T16:50:22.550Z,56.00
2023-03-25T16:52:54.347Z,56.20
2023-03-25T16:55:35.490Z,56.40
2023-03-25T16:58:05.290Z,56.80
2023-03-25T17:00:44.991Z,57.10
2023-03-25T17:03:19.403Z,57.20
2023-03-25T17:06:06.282Z,57.10
2023-03-25T17:08:36.939Z,57.20
2023-03-25T17:11:09.861Z,57.40
2023-03-25T17:13:53.905Z,57.30
2023-03-25T17:16:24.631Z,57.30
2023-03-25T17:18:57.775Z,57.60
2023-03-25T17:21:31.841Z,57.60
2023-03-25T17:24:22.954Z,57.80
2023-03-25T17:27:05.780Z,57.60
2023-03-25T17:29:35.552Z,58.00
2023-03-25T17:32:05.584Z,58.00
2023-03-25T17:34:44.402Z,58.30
2023-03-25T17:37:16.115Z,58.10
2023-03-25T17:39:51.900Z,58.00
2023-03-25T17:42:28.658Z,58.00
2023-03-25T17:44:58.339Z,58.00
2023-03-25T17:47:28.097Z,58.00
2023-03-25T17:49:58.990Z,58.10
2023-03-25T17:52:31.766Z,58.10
2023-03-25T17:55:01.579Z,58.20
2023-03-25T17:57:31.158Z,58.70
2023-03-25T18:00:00.835Z,59.60
2023-03-25T18:02:30.596Z,59.50
2023-03-25T18:05:00.251Z,59.30
2023-03-25T18:07:29.860Z,59.20
2023-03-25T18:09:59.591Z,59.30
2023-03-25T18:12:29.831Z,59.60
2023-03-25T18:14:59.399Z,59.90
2023-03-25T18:17:29.025Z,59.80
2023-03-25T18:19:58.660Z,60.20
2023-03-25T18:22:28.485Z,60.70
2023-03-25T18:24:58.042Z,60.50
2023-03-25T18:27:40.728Z,60.80
2023-03-25T18:30:21.895Z,60.00
2023-03-25T18:32:51.700Z,59.90
2023-03-25T18:35:21.716Z,60.10
2023-03-25T18:37:52.083Z,60.80
2023-03-25T18:40:29.895Z,61.70
2023-03-25T18:42:59.555Z,61.70
2023-03-25T18:45:29.465Z,62.00
2023-03-25T18:47:59.304Z,61.80
2023-03-25T18:50:34.257Z,61.80
2023-03-25T18:53:04.220Z,61.70
2023-03-25T18:55:35.159Z,62.00
2023-03-25T18:58:06.127Z,61.80
2023-03-25T19:00:40.461Z,62.10
2023-03-25T19:03:10.780Z,61.90
2023-03-25T19:05:40.443Z,62.30
2023-03-25T19:08:15.975Z,61.80
2023-03-25T19:10:46.297Z,62.10
2023-03-25T19:13:17.595Z,63.40
2023-03-25T19:15:48.260Z,63.80
2023-03-25T19:18:24.742Z,64.90
2023-03-25T19:20:55.514Z,65.20
2023-03-25T19:23:25.633Z,64.70
2023-03-25T19:25:59.390Z,64.40
2023-03-25T19:28:29.287Z,64.40
2023-03-25T19:31:02.959Z,64.00
2023-03-25T19:33:32.977Z,63.90
2023-03-25T19:36:05.875Z,63.60
2023-03-25T19:38:36.435Z,63.80
2023-03-25T19:41:12.420Z,63.50
2023-03-25T19:43:42.777Z,63.40
2023-03-25T19:46:12.953Z,64.00
2023-03-25T19:48:42.846Z,63.60
2023-03-25T19:51:12.673Z,64.00
2023-03-25T19:53:42.429Z,63.70
2023-03-25T19:56:15.564Z,63.80
2023-03-25T19:58:45.266Z,63.00
2023-03-25T20:01:14.950Z,62.90
2023-03-25T20:03:44.846Z,63.10
2023-03-25T20:06:14.703Z,62.80
2023-03-25T20:08:44.486Z,62.30
2023-03-25T20:11:14.517Z,62.90
2023-03-25T20:13:44.204Z,62.20
2023-03-25T20:16:14.030Z,62.10
2023-03-25T20:18:43.857Z,62.00
2023-03-25T20:21:13.688Z,62.00
2023-03-25T20:23:43.368Z,61.70
2023-03-25T20:26:13.224Z,61.70
2023-03-25T20:28:42.916Z,61.60
2023-03-25T20:31:21.885Z,61.50
2023-03-25T20:33:52.075Z,61.40
2023-03-25T20:36:23.178Z,61.60
2023-03-25T20:38:57.682Z,61.50
2023-03-25T20:41:28.876Z,61.30
2023-03-25T20:43:58.610Z,61.30
2023-03-25T20:46:32.873Z,61.30
2023-03-25T20:49:03.769Z,61.50
2023-03-25T20:51:33.463Z,61.70
2023-03-25T20:54:03.129Z,61.60
2023-03-25T20:56:33.464Z,61.80
2023-03-25T20:59:03.396Z,62.00
2023-03-25T21:01:36.771Z,62.00
2023-03-25T21:04:07.990Z,62.00
2023-03-25T21:06:37.614Z,62.20
2023-03-25T21:09:08.096Z,62.10
2023-03-25T21:11:37.969Z,62.20
2023-03-25T21:14:08.276Z,62.40
2023-03-25T21:16:37.995Z,62.60
2023-03-25T21:19:09.767Z,62.80
2023-03-25T21:21:40.131Z,62.80
2023-03-25T21:24:10.196Z,62.60
2023-03-25T21:26:40.027Z,63.10
2023-03-25T21:29:10.919Z,64.00
2023-03-25T21:31:40.665Z,64.90
2023-03-25T21:34:10.448Z,65.00
2023-03-25T21:36:40.203Z,65.20
2023-03-25T21:39:10.436Z,65.30
2023-03-25T21:44:00.849Z,64.70
2023-03-25T21:46:30.634Z,65.00
2023-03-25T21:49:01.340Z,65.20
2023-03-25T22:12:29.388Z,64.20
2023-03-25T22:26:40.236Z,63.80
2023-03-25T22:29:12.175Z,64.10
2023-03-25T22:31:42.344Z,64.10
2023-03-25T22:34:17.002Z,64.00
2023-03-25T22:36:51.267Z,64.20
2023-03-25T22:39:24.703Z,64.10
2023-03-25T22:46:35.716Z,63.40
2023-03-25T22:58:26.905Z,63.60
2023-03-25T23:00:57.799Z,64.00
2023-03-25T23:36:18.694Z,63.00
2023-03-25T23:38:49.745Z,63.70
2023-03-25T23:41:24.499Z,63.90
2023-03-25T23:43:56.044Z,64.10
2023-03-25T23:46:27.397Z,64.20
2023-03-25T23:48:57.578Z,64.00
2023-03-25T23:51:27.858Z,64.70
2023-03-25T23:53:58.443Z,65.00
2023-03-25T23:56:28.090Z,65.00
2023-03-25T23:58:57.889Z,65.10
